Time;durP1;ratioP1;P1;durP2;ratioP2;P2;SDS_P1;SDS_P2;PMS_P1;PMS_P2;Temp;Humidity;BMP_temperature;BMP_pressure;BME280_temperature;BME280_humidity;BME280_pressure;Samples;Min_cycle;Max_cycle;Signal;HPM_P1;HPM_P2
2022/08/08 00:00:10;;;;;;;18.90;8.00;;;;;;;14.46;100.00;102295.78;5043209;28;20496;-63
2022/08/08 00:02:51;;;;;;;19.70;7.70;;;;;;;14.47;100.00;102292.22;5034874;28;20040;-66
2022/08/08 00:05:20;;;;;;;19.42;7.82;;;;;;;14.52;100.00;102294.91;5038589;28;20027;-65
2022/08/08 00:08:06;;;;;;;20.15;7.78;;;;;;;14.35;100.00;102297.41;5041551;28;20037;-65
2022/08/08 00:10:58;;;;;;;19.98;7.70;;;;;;;14.33;100.00;102299.13;5039898;28;20025;-66
2022/08/08 00:14:02;;;;;;;19.75;8.10;;;;;;;14.24;100.00;102306.16;5021433;28;20037;-66
2022/08/08 00:16:39;;;;;;;19.30;7.68;;;;;;;14.22;100.00;102304.34;5015046;28;20037;-60
2022/08/08 00:19:45;;;;;;;19.75;8.02;;;;;;;14.22;100.00;102305.22;5016637;28;20038;-66
2022/08/08 00:22:38;;;;;;;20.23;8.30;;;;;;;14.06;100.00;102300.59;4926647;29;20034;-66
2022/08/08 00:25:12;;;;;;;19.27;7.80;;;;;;;13.91;100.00;102302.16;4930698;29;20051;-66
2022/08/08 00:27:39;;;;;;;19.55;7.75;;;;;;;13.89;100.00;102316.31;4927189;29;20032;-64
2022/08/08 00:30:08;;;;;;;19.85;8.02;;;;;;;13.95;100.00;102301.34;4923393;29;20445;-66
2022/08/08 00:32:45;;;;;;;19.55;7.60;;;;;;;14.16;100.00;102306.94;4930308;29;20501;-66
2022/08/08 00:35:29;;;;;;;19.92;8.63;;;;;;;14.17;100.00;102309.59;4927235;29;20031;-65
2022/08/08 00:38:06;;;;;;;20.42;8.30;;;;;;;14.13;100.00;102302.47;4925286;29;20091;-66
2022/08/08 00:40:37;;;;;;;20.33;8.00;;;;;;;14.18;100.00;102306.06;4923139;29;20036;-66
2022/08/08 00:43:24;;;;;;;20.17;8.40;;;;;;;14.10;100.00;102310.41;4926321;29;20043;-66
2022/08/08 00:46:14;;;;;;;20.08;8.27;;;;;;;14.10;100.00;102307.75;4929427;29;20047;-66
2022/08/08 00:48:54;;;;;;;21.38;8.73;;;;;;;14.06;100.00;102309.44;4932093;29;20036;-65
2022/08/08 00:51:53;;;;;;;20.90;7.95;;;;;;;14.07;100.00;102302.38;4946438;29;20074;-65
2022/08/08 00:54:37;;;;;;;19.92;8.20;;;;;;;13.97;100.00;102287.19;4945511;29;20338;-66
2022/08/08 00:57:20;;;;;;;20.10;8.55;;;;;;;13.99;100.00;102296.06;5028977;28;20041;-66
2022/08/08 01:00:08;;;;;;;20.10;8.88;;;;;;;13.88;100.00;102303.91;5037791;28;20025;-68
2022/08/08 01:02:58;;;;;;;20.40;8.57;;;;;;;13.75;100.00;102293.09;5042747;28;20393;-70
2022/08/08 01:05:45;;;;;;;20.05;8.98;;;;;;;13.74;100.00;102299.25;5039664;28;20049;-69
2022/08/08 01:08:42;;;;;;;20.40;8.90;;;;;;;13.85;100.00;102295.88;5041067;28;20041;-69
2022/08/08 01:11:29;;;;;;;21.33;9.30;;;;;;;13.75;100.00;102300.19;5043318;28;20025;-70
2022/08/08 01:14:09;;;;;;;20.42;8.80;;;;;;;13.68;100.00;102298.31;5040019;28;20480;-69
2022/08/08 01:17:08;;;;;;;20.85;9.15;;;;;;;13.64;100.00;102288.50;5042235;28;20056;-69
2022/08/08 01:19:40;;;;;;;20.77;9.57;;;;;;;13.45;100.00;102295.31;5041133;28;20517;-70
2022/08/08 01:22:45;;;;;;;21.15;9.35;;;;;;;13.40;100.00;102292.56;5042163;28;20135;-69
2022/08/08 01:25:32;;;;;;;20.90;10.32;;;;;;;13.24;100.00;102294.94;5044162;28;20033;-69
2022/08/08 01:28:08;;;;;;;22.23;10.15;;;;;;;13.12;100.00;102294.75;5040841;28;20033;-70
2022/08/08 01:31:01;;;;;;;21.17;10.48;;;;;;;13.07;100.00;102289.34;5042430;28;20079;-70
2022/08/08 01:33:27;;;;;;;;;;;;;;;13.19;100.00;102294.00;5040684;28;20033;-69
2022/08/08 01:35:52;;;;;;;22.50;11.03;;;;;;;13.04;100.00;102296.38;5043964;28;19919;-68
2022/08/08 01:38:40;;;;;;;22.63;11.20;;;;;;;13.10;100.00;102292.94;5041253;28;20268;-69
2022/08/08 01:41:27;;;;;;;21.55;10.90;;;;;;;13.02;100.00;102287.50;5020179;28;20096;-69
2022/08/08 01:44:02;;;;;;;22.35;10.55;;;;;;;12.97;100.00;102286.50;5016669;28;20093;-67
2022/08/08 01:46:53;;;;;;;21.60;10.45;;;;;;;12.86;100.00;102289.88;5020940;28;20037;-70
2022/08/08 01:50:10;;;;;;;21.77;10.63;;;;;;;12.84;100.00;102286.31;5015613;28;20565;-69
2022/08/08 01:53:06;;;;;;;21.23;10.32;;;;;;;12.71;100.00;102281.63;4942157;29;20047;-69
2022/08/08 01:56:02;;;;;;;21.48;10.88;;;;;;;12.63;100.00;102286.81;4942573;29;20086;-69
2022/08/08 01:58:52;;;;;;;23.48;10.95;;;;;;;12.59;100.00;102289.38;4942426;29;20044;-69
2022/08/08 02:01:25;;;;;;;21.42;11.18;;;;;;;12.52;100.00;102299.88;4944324;29;20031;-69
2022/08/08 02:04:12;;;;;;;21.70;10.90;;;;;;;12.48;100.00;102298.03;4944080;29;20031;-69
2022/08/08 02:06:59;;;;;;;22.20;11.05;;;;;;;12.49;100.00;102294.47;4943569;29;20186;-70
2022/08/08 02:09:48;;;;;;;21.17;10.57;;;;;;;12.43;100.00;102296.13;4941568;29;20523;-69
2022/08/08 02:12:28;;;;;;;21.35;10.68;;;;;;;12.38;100.00;102299.59;4944768;28;20047;-70
2022/08/08 02:15:08;;;;;;;22.38;10.85;;;;;;;12.34;100.00;102295.06;4935987;29;20054;-70
2022/08/08 02:17:52;;;;;;;22.67;10.25;;;;;;;12.36;100.00;102297.75;4947574;28;20602;-70
2022/08/08 02:20:27;;;;;;;21.55;10.23;;;;;;;12.46;100.00;102294.44;4961341;28;20031;-70
2022/08/08 02:23:08;;;;;;;22.35;10.07;;;;;;;12.42;100.00;102297.00;4964602;28;20546;-69
2022/08/08 02:25:44;;;;;;;21.95;10.10;;;;;;;12.50;100.00;102296.28;4965364;28;20438;-69
2022/08/08 02:28:47;;;;;;;21.30;9.63;;;;;;;12.54;100.00;102298.13;5001972;28;20041;-70
2022/08/08 02:31:37;;;;;;;20.45;9.68;;;;;;;12.38;100.00;102301.34;5047566;28;20086;-69
2022/08/08 02:34:21;;;;;;;22.35;10.48;;;;;;;12.36;100.00;102287.16;5045106;28;20033;-69
2022/08/08 02:36:49;;;;;;;20.70;10.05;;;;;;;12.47;100.00;102298.00;5040560;28;20534;-70
2022/08/08 02:39:17;;;;;;;21.65;10.13;;;;;;;12.49;100.00;102294.47;5040480;28;20025;-70
2022/08/08 02:42:19;;;;;;;21.98;10.30;;;;;;;12.40;100.00;102298.72;5047339;28;20057;-69
2022/08/08 02:44:47;;;;;;;21.10;10.95;;;;;;;12.28;100.00;102288.78;5040308;28;20052;-69
2022/08/08 02:47:41;;;;;;;21.73;11.00;;;;;;;12.19;100.00;102290.38;5047042;28;20115;-60
2022/08/08 02:50:43;;;;;;;22.00;10.77;;;;;;;12.09;100.00;102287.50;5037604;28;20033;-63
2022/08/08 02:53:45;;;;;;;22.75;11.10;;;;;;;12.12;100.00;102293.75;5045907;28;20028;-66
2022/08/08 02:56:35;;;;;;;21.25;10.35;;;;;;;12.15;100.00;102288.50;5040254;28;20030;-66
2022/08/08 02:59:39;;;;;;;22.60;10.93;;;;;;;12.07;100.00;102291.88;5041380;28;20041;-65
2022/08/08 03:02:36;;;;;;;22.33;10.98;;;;;;;11.96;100.00;102292.53;5042278;28;20033;-65
2022/08/08 03:05:22;;;;;;;21.80;10.95;;;;;;;11.88;100.00;102303.78;5041425;28;20033;-66
2022/08/08 03:08:25;;;;;;;23.75;12.68;;;;;;;11.84;100.00;102309.03;5044519;28;20064;-64
2022/08/08 03:11:23;;;;;;;21.98;11.43;;;;;;;11.88;100.00;102303.78;5046656;28;20033;-66
2022/08/08 03:14:13;;;;;;;22.30;11.65;;;;;;;11.73;100.00;102299.94;5046196;28;20245;-64
2022/08/08 03:16:51;;;;;;;21.63;11.02;;;;;;;11.65;100.00;102301.53;5042826;28;20026;-66
2022/08/08 03:19:38;;;;;;;22.02;11.18;;;;;;;11.61;100.00;102305.84;5043084;28;20463;-67
2022/08/08 03:22:03;;;;;;;22.40;11.45;;;;;;;11.61;100.00;102304.97;5040136;28;20465;-62
2022/08/08 03:24:28;;;;;;;21.90;11.70;;;;;;;11.56;100.00;102306.59;5046610;28;20028;-61
2022/08/08 03:27:20;;;;;;;21.50;10.93;;;;;;;11.58;100.00;102304.91;5043366;28;20280;-60
2022/08/08 03:29:52;;;;;;;21.35;10.75;;;;;;;11.54;100.00;102308.31;5044626;28;20022;-63
2022/08/08 03:35:06;;;;;;;22.50;12.00;;;;;;;11.42;100.00;102316.88;5041162;28;20076;-60
2022/08/08 03:37:35;;;;;;;23.15;11.20;;;;;;;11.36;100.00;102311.41;5045885;28;20025;-60
2022/08/08 03:40:02;;;;;;;22.55;11.18;;;;;;;11.40;100.00;102311.53;5043255;28;20456;-61
2022/08/08 03:42:27;;;;;;;21.38;10.77;;;;;;;11.41;100.00;102313.31;5046439;28;20060;-60
2022/08/08 03:44:53;;;;;;;22.67;11.10;;;;;;;11.31;100.00;102317.50;5041947;28;20029;-62
2022/08/08 03:47:20;;;;;;;22.35;11.82;;;;;;;11.36;100.00;102312.31;5045671;28;20061;-60
2022/08/08 03:49:47;;;;;;;23.55;12.57;;;;;;;11.34;100.00;102316.66;5044292;28;20067;-61
2022/08/08 03:52:13;;;;;;;22.85;11.88;;;;;;;11.38;100.00;102313.25;5044832;28;20032;-60
2022/08/08 03:54:41;;;;;;;22.35;12.13;;;;;;;11.57;100.00;102316.34;5044748;28;20383;-60
2022/08/08 03:57:13;;;;;;;21.60;11.40;;;;;;;11.57;100.00;102324.28;5043935;28;20029;-60
2022/08/08 03:59:39;;;;;;;;;;;;;;;11.66;100.00;102319.19;5045288;28;20033;-60
2022/08/08 04:02:17;;;;;;;23.00;11.85;;;;;;;11.68;100.00;102325.44;5043747;28;19916;-61
2022/08/08 04:04:42;;;;;;;22.65;11.57;;;;;;;11.68;100.00;102328.09;5044256;28;20075;-62
2022/08/08 04:07:08;;;;;;;22.77;11.18;;;;;;;11.58;100.00;102326.09;5044110;28;20029;-60
2022/08/08 04:09:33;;;;;;;23.98;12.23;;;;;;;11.56;100.00;102333.06;5045111;28;20492;-60
2022/08/08 04:11:59;;;;;;;22.85;12.30;;;;;;;11.56;100.00;102333.97;5042889;28;20094;-60
2022/08/08 04:14:25;;;;;;;23.88;13.40;;;;;;;11.62;100.00;102338.50;5045756;28;20036;-60
2022/08/08 04:16:50;;;;;;;24.45;13.20;;;;;;;11.63;100.00;102335.00;5043016;28;20034;-60
2022/08/08 04:19:15;;;;;;;23.52;12.43;;;;;;;11.57;100.00;102335.75;5044745;28;20018;-65
2022/08/08 04:21:41;;;;;;;23.80;12.90;;;;;;;11.50;100.00;102329.44;5043869;28;20032;-61
2022/08/08 04:24:06;;;;;;;24.27;13.05;;;;;;;11.50;100.00;102334.75;5043570;28;20025;-62
2022/08/08 04:26:32;;;;;;;23.70;12.98;;;;;;;11.56;100.00;102331.31;5045284;28;20021;-61
2022/08/08 04:28:57;;;;;;;23.48;12.77;;;;;;;11.56;100.00;102333.97;5042196;28;20025;-62
2022/08/08 04:31:22;;;;;;;24.90;13.30;;;;;;;11.65;100.00;102339.50;5045230;28;20455;-60
2022/08/08 04:33:48;;;;;;;23.00;12.43;;;;;;;11.68;100.00;102339.56;5041912;28;20045;-60
2022/08/08 04:36:13;;;;;;;23.05;12.48;;;;;;;11.68;100.00;102338.69;5043887;28;20049;-62
2022/08/08 04:38:38;;;;;;;23.35;12.30;;;;;;;11.80;100.00;102333.66;5043933;28;20065;-60
2022/08/08 04:41:04;;;;;;;24.40;12.90;;;;;;;11.81;100.00;102343.41;5042602;28;20105;-61
2022/08/08 04:43:29;;;;;;;23.00;12.77;;;;;;;11.81;100.00;102346.06;5045148;28;20032;-61
2022/08/08 04:45:55;;;;;;;24.27;13.38;;;;;;;11.81;100.00;102353.09;5042097;28;20083;-63
2022/08/08 04:48:20;;;;;;;24.55;13.13;;;;;;;11.78;100.00;102353.03;5044706;28;20421;-61
2022/08/08 04:50:45;;;;;;;24.40;13.23;;;;;;;11.85;100.00;102358.50;5024950;28;20082;-61
2022/08/08 04:53:11;;;;;;;25.10;13.18;;;;;;;11.83;100.00;102359.34;5043251;28;20511;-60
2022/08/08 04:55:36;;;;;;;23.98;13.57;;;;;;;11.86;100.00;102359.41;5043924;28;20477;-61
2022/08/08 04:58:01;;;;;;;25.02;12.98;;;;;;;11.86;100.00;102370.88;5041876;28;20104;-60
2022/08/08 05:00:27;;;;;;;25.65;13.65;;;;;;;11.91;100.00;102362.16;5045261;28;20056;-60
2022/08/08 05:02:52;;;;;;;24.67;13.70;;;;;;;11.97;100.00;102372.91;5041736;28;20095;-60
2022/08/08 05:05:18;;;;;;;23.88;13.07;;;;;;;12.02;100.00;102377.47;5044034;28;20021;-60
2022/08/08 05:07:45;;;;;;;24.95;14.05;;;;;;;12.05;100.00;102374.00;5042864;28;20028;-63
2022/08/08 05:10:11;;;;;;;23.98;13.70;;;;;;;12.03;100.00;102373.97;5043191;28;20021;-61
2022/08/08 05:12:37;;;;;;;27.48;14.18;;;;;;;12.11;100.00;102370.59;5043567;28;20094;-60
2022/08/08 05:15:03;;;;;;;25.08;14.77;;;;;;;12.22;100.00;102377.03;5042092;28;20038;-60
2022/08/08 05:17:28;;;;;;;26.48;14.32;;;;;;;12.21;100.00;102376.13;5044930;28;20035;-62
2022/08/08 05:19:53;;;;;;;28.35;13.65;;;;;;;12.25;100.00;102384.16;5041250;28;20029;-60
2022/08/08 05:22:19;;;;;;;27.90;14.90;;;;;;;12.27;100.00;102382.44;5043974;28;20471;-60
2022/08/08 05:24:44;;;;;;;29.10;14.90;;;;;;;12.40;100.00;102392.44;5042303;28;20140;-60
2022/08/08 05:27:09;;;;;;;26.85;15.10;;;;;;;12.43;100.00;102391.59;5042692;28;20033;-62
2022/08/08 05:29:35;;;;;;;26.40;14.50;;;;;;;12.56;100.00;102386.56;5043526;28;20048;-61
2022/08/08 05:32:00;;;;;;;26.17;15.23;;;;;;;12.74;100.00;102385.16;5029996;28;20032;-60
2022/08/08 05:34:34;;;;;;;25.55;15.43;;;;;;;12.82;100.00;102386.22;5030790;28;20100;-60
2022/08/08 05:37:01;;;;;;;26.17;16.00;;;;;;;12.91;100.00;102370.47;5031689;28;20117;-59
2022/08/08 05:39:27;;;;;;;25.83;15.77;;;;;;;13.16;100.00;102378.88;5031140;28;20048;-59
2022/08/08 05:41:53;;;;;;;26.65;15.73;;;;;;;13.30;100.00;102380.91;5031689;28;20049;-60
2022/08/08 05:44:25;;;;;;;27.73;16.00;;;;;;;13.42;100.00;102381.13;5031150;28;20032;-59
2022/08/08 05:46:54;;;;;;;28.67;16.67;;;;;;;13.51;100.00;102386.59;5033353;28;20075;-59
2022/08/08 05:49:20;;;;;;;26.70;16.08;;;;;;;13.60;100.00;102385.84;5029902;28;20443;-60
2022/08/08 05:51:47;;;;;;;28.27;16.63;;;;;;;13.71;100.00;102386.03;5030436;28;20117;-68
2022/08/08 05:54:12;;;;;;;26.77;15.77;;;;;;;13.84;100.00;102397.75;5031225;28;20026;-68
2022/08/08 05:56:39;;;;;;;25.33;15.73;;;;;;;13.94;100.00;102391.72;5031040;28;20447;-71
2022/08/08 05:59:09;;;;;;;25.90;15.68;;;;;;;14.03;100.00;102391.84;5032563;28;20033;-70
2022/08/08 06:01:40;;;;;;;26.90;15.25;;;;;;;14.15;100.00;102393.78;5026977;28;20477;-72
2022/08/08 06:04:09;;;;;;;25.70;15.00;;;;;;;14.24;100.00;102401.91;5034183;28;20022;-69
2022/08/08 06:06:39;;;;;;;26.55;15.05;;;;;;;14.28;100.00;102394.84;5034004;28;20055;-72
2022/08/08 06:09:07;;;;;;;26.80;14.60;;;;;;;14.35;100.00;102398.50;5031297;28;20079;-68
2022/08/08 06:11:33;;;;;;;26.83;14.48;;;;;;;14.42;100.00;102400.34;5029823;28;20028;-71
2022/08/08 06:13:59;;;;;;;24.50;14.32;;;;;;;14.51;100.00;102403.13;5030992;28;20030;-66
2022/08/08 06:16:26;;;;;;;26.52;14.68;;;;;;;14.56;100.00;102398.78;5031081;28;20384;-70
2022/08/08 06:18:53;;;;;;;24.83;14.90;;;;;;;14.63;100.00;102399.75;5030623;28;20018;-70
2022/08/08 06:21:20;;;;;;;25.98;15.23;;;;;;;14.71;100.00;102403.41;5033663;28;20494;-74
2022/08/08 06:23:46;;;;;;;26.02;15.45;;;;;;;14.76;100.00;102403.47;5032203;28;20084;-68
2022/08/08 06:26:13;;;;;;;25.52;14.77;;;;;;;14.84;100.00;102411.53;5030880;28;20542;-67
2022/08/08 06:28:56;;;;;;;25.95;15.25;;;;;;;14.96;100.00;102417.00;5030741;28;20029;-70
2022/08/08 06:31:22;;;;;;;25.40;15.20;;;;;;;15.07;100.00;102411.78;5035033;28;20036;-60
2022/08/08 06:34:11;;;;;;;25.45;15.02;;;;;;;15.15;100.00;102418.09;5030771;28;20120;-59
2022/08/08 06:36:39;;;;;;;24.42;14.45;;;;;;;15.24;100.00;102415.50;5030857;28;20040;-59
2022/08/08 06:39:10;;;;;;;24.73;14.20;;;;;;;15.32;100.00;102426.25;5030260;28;20108;-60
2022/08/08 06:41:49;;;;;;;26.07;14.67;;;;;;;15.37;100.00;102426.31;5033454;28;20136;-59
2022/08/08 06:44:16;;;;;;;25.70;14.88;;;;;;;15.46;100.00;102413.06;5033086;28;20052;-59
2022/08/08 06:46:43;;;;;;;26.02;14.73;;;;;;;15.53;100.00;102428.22;5034247;28;20057;-59
2022/08/08 06:49:09;;;;;;;24.30;14.43;;;;;;;15.62;100.00;102425.63;5029435;28;20099;-60
2022/08/08 06:51:35;;;;;;;25.85;13.93;;;;;;;15.68;100.00;102425.69;5031935;28;20033;-59
2022/08/08 06:54:01;;;;;;;23.15;13.05;;;;;;;15.77;100.00;102429.28;5030630;28;20079;-60
2022/08/08 06:56:29;;;;;;;24.20;12.90;;;;;;;15.84;100.00;102424.06;5032923;28;20056;-60
2022/08/08 06:58:54;;;;;;;24.48;12.90;;;;;;;15.94;100.00;102424.13;5030379;28;20022;-60
2022/08/08 07:01:23;;;;;;;25.67;12.90;;;;;;;16.05;100.00;102425.09;5032009;28;20030;-60
2022/08/08 07:03:53;;;;;;;25.05;13.27;;;;;;;16.12;100.00;102437.59;5030736;28;20057;-59
2022/08/08 07:06:30;;;;;;;23.17;12.45;;;;;;;16.23;100.00;102439.44;5027253;28;20057;-59
2022/08/08 07:09:13;;;;;;;23.73;12.13;;;;;;;16.30;100.00;102436.81;5031468;28;20503;-59
2022/08/08 07:11:46;;;;;;;23.25;11.45;;;;;;;16.45;100.00;102443.13;5033463;28;20033;-60
2022/08/08 07:14:17;;;;;;;23.33;11.07;;;;;;;16.59;100.00;102441.41;5034108;28;20075;-60
2022/08/08 07:17:07;;;;;;;22.17;10.63;;;;;;;16.70;100.00;102439.69;5037836;28;20040;-61
2022/08/08 07:19:43;;;;;;;24.05;10.30;;;;;;;16.86;100.00;102439.72;5031946;28;20033;-59
2022/08/08 07:22:09;;;;;;;21.90;9.20;;;;;;;16.97;100.00;102442.47;5032789;28;20083;-59
2022/08/08 07:24:52;;;;;;;22.10;9.07;;;;;;;17.14;100.00;102450.53;5033622;28;20033;-59
2022/08/08 07:27:22;;;;;;;20.80;8.13;;;;;;;17.30;100.00;102448.78;5034384;28;20109;-59
2022/08/08 07:29:47;;;;;;;20.58;7.68;;;;;;;17.41;100.00;102450.56;5035468;28;20029;-59
2022/08/08 07:32:14;;;;;;;20.45;7.43;;;;;;;17.51;100.00;102443.47;5033832;28;20043;-60
2022/08/08 07:34:40;;;;;;;20.35;7.10;;;;;;;17.63;100.00;102453.25;5032840;28;20072;-60
2022/08/08 07:37:05;;;;;;;20.70;7.50;;;;;;;17.71;100.00;102451.50;5034105;28;20109;-61
2022/08/08 07:39:32;;;;;;;19.40;7.00;;;;;;;17.76;100.00;102452.38;5033204;28;20109;-61
2022/08/08 07:41:58;;;;;;;20.25;6.78;;;;;;;17.85;100.00;102454.16;5033486;28;20041;-60
2022/08/08 07:44:24;;;;;;;20.05;7.05;;;;;;;17.93;100.00;102448.84;5042666;28;20025;-61
2022/08/08 07:46:50;;;;;;;18.52;6.72;;;;;;;18.04;100.00;102455.09;5044953;28;20105;-61
2022/08/08 07:49:15;;;;;;;19.45;6.72;;;;;;;18.19;100.00;102453.25;5043971;28;20397;-61
2022/08/08 07:51:41;;;;;;;19.17;6.22;;;;;;;18.19;100.00;102461.28;5046245;28;20048;-62
2022/08/08 07:54:20;;;;;;;19.10;6.22;;;;;;;18.19;100.00;102454.16;5042586;28;20034;-63
2022/08/08 07:57:02;;;;;;;19.15;6.38;;;;;;;18.30;100.00;102454.13;5041400;28;20071;-61
2022/08/08 07:59:34;;;;;;;19.35;5.97;;;;;;;18.33;100.00;102464.81;5043175;28;20441;-63
2022/08/08 08:02:04;;;;;;;17.45;5.40;;;;;;;18.41;100.00;102464.81;5045595;28;20037;-65
2022/08/08 08:04:33;;;;;;;16.90;5.15;;;;;;;18.46;100.00;102469.28;5042947;28;20022;-68
2022/08/08 08:06:59;;;;;;;17.02;5.07;;;;;;;18.56;100.00;102470.13;5045162;28;20119;-60
2022/08/08 08:09:30;;;;;;;16.08;4.93;;;;;;;18.68;100.00;102460.25;5043695;28;20025;-60
2022/08/08 08:11:56;;;;;;;17.95;5.13;;;;;;;18.81;100.00;102465.56;5044793;28;20031;-61
2022/08/08 08:14:40;;;;;;;17.63;5.03;;;;;;;19.05;100.00;102466.38;5039173;28;20025;-59
2022/08/08 08:17:08;;;;;;;18.15;4.93;;;;;;;19.11;100.00;102465.47;5035321;28;20033;-59
2022/08/08 08:19:35;;;;;;;17.75;5.05;;;;;;;19.15;100.00;102473.47;5035044;28;20044;-59
2022/08/08 08:22:00;;;;;;;16.88;4.82;;;;;;;19.29;100.00;102476.03;5034404;28;20024;-59
2022/08/08 08:24:26;;;;;;;17.10;4.93;;;;;;;19.39;100.00;102468.84;5031299;28;20025;-59
2022/08/08 08:26:52;;;;;;;17.48;5.35;;;;;;;19.59;100.00;102474.06;5038182;28;20104;-59
2022/08/08 08:29:17;;;;;;;16.55;5.00;;;;;;;20.16;100.00;102481.63;5034074;28;20060;-60
2022/08/08 08:31:42;;;;;;;17.17;4.75;;;;;;;20.83;95.51;102479.13;5035729;28;20066;-60
2022/08/08 08:34:08;;;;;;;15.57;4.70;;;;;;;21.48;92.83;102480.00;5035139;28;20091;-64
2022/08/08 08:36:34;;;;;;;14.52;4.40;;;;;;;22.03;88.80;102480.94;5033917;28;20013;-61
2022/08/08 08:38:59;;;;;;;13.45;4.28;;;;;;;22.49;85.77;102482.78;5032707;28;20021;-65
2022/08/08 08:41:25;;;;;;;16.45;4.35;;;;;;;22.88;81.12;102477.50;5033304;28;20050;-60
2022/08/08 08:43:50;;;;;;;15.40;4.13;;;;;;;23.27;79.79;102482.97;5034163;28;20022;-60
2022/08/08 08:46:16;;;;;;;14.30;4.07;;;;;;;23.55;77.49;102484.09;5032876;28;20108;-60
2022/08/08 08:48:42;;;;;;;14.18;4.05;;;;;;;23.27;78.36;102485.66;5034569;28;20025;-63
2022/08/08 08:51:12;;;;;;;15.23;4.07;;;;;;;23.08;79.93;102489.63;5031312;28;20056;-59
2022/08/08 08:53:52;;;;;;;14.55;3.80;;;;;;;23.25;81.61;102489.31;5031574;28;20400;-69
2022/08/08 08:56:19;;;;;;;12.35;3.42;;;;;;;23.78;74.40;102484.44;5032177;28;20116;-72
2022/08/08 08:58:47;;;;;;;12.98;3.58;;;;;;;24.48;72.28;102485.28;5033236;28;20013;-69
2022/08/08 09:01:36;;;;;;;14.75;3.42;;;;;;;25.22;68.81;102489.44;5037797;28;20442;-70
2022/08/08 09:04:20;;;;;;;14.27;3.45;;;;;;;25.34;64.74;102488.19;5033085;28;20052;-72
2022/08/08 09:06:48;;;;;;;11.48;3.17;;;;;;;25.01;58.99;102487.38;5033541;28;20103;-70
2022/08/08 09:09:21;;;;;;;12.00;3.33;;;;;;;24.87;59.86;102485.09;5033944;28;20114;-71
2022/08/08 09:11:49;;;;;;;11.98;3.42;;;;;;;24.52;60.00;102484.25;5029592;28;20029;-70
2022/08/08 09:14:18;;;;;;;9.90;3.20;;;;;;;24.04;58.94;102493.69;5032159;28;21531;-68
2022/08/08 09:16:44;;;;;;;11.95;3.25;;;;;;;23.45;61.29;102480.75;5033313;28;20029;-77
2022/08/08 09:19:10;;;;;;;9.48;2.85;;;;;;;23.26;62.12;102489.25;5033983;28;20032;-71
2022/08/08 09:21:36;;;;;;;11.43;3.28;;;;;;;23.39;63.25;102480.91;5035431;28;20021;-61
2022/08/08 09:24:02;;;;;;;13.52;3.25;;;;;;;23.96;61.74;102480.38;5033847;28;20021;-60
2022/08/08 09:26:33;;;;;;;11.13;3.30;;;;;;;24.83;60.62;102483.44;5038145;28;20029;-59
2022/08/08 09:29:00;;;;;;;10.33;3.30;;;;;;;25.71;57.72;102484.25;5030189;28;20276;-59
2022/08/08 09:31:47;;;;;;;10.02;3.13;;;;;;;26.50;52.89;102495.06;5034941;28;20456;-60
2022/08/08 09:34:16;;;;;;;11.57;3.30;;;;;;;27.25;46.39;102498.59;5031966;28;20033;-81
2022/08/08 09:36:45;;;;;;;12.75;3.50;;;;;;;27.74;41.47;102487.53;5030265;28;20048;-76
2022/08/08 09:39:11;;;;;;;9.48;3.00;;;;;;;27.77;41.63;102491.03;5029288;28;20485;-69
2022/08/08 09:41:41;;;;;;;10.38;2.92;;;;;;;28.47;40.56;102482.53;5032448;28;20052;-67
2022/08/08 09:44:18;;;;;;;12.10;3.20;;;;;;;29.39;39.53;102490.97;5028725;28;20026;-70
2022/08/08 09:46:48;;;;;;;14.70;3.15;;;;;;;30.29;36.46;102487.28;5030857;28;20025;-70
2022/08/08 09:49:17;;;;;;;8.13;2.78;;;;;;;28.77;36.12;102491.16;5032506;28;20025;-71
2022/08/08 09:51:48;;;;;;;9.80;2.90;;;;;;;26.80;40.55;102481.34;5032186;28;20026;-69
2022/08/08 09:54:18;;;;;;;9.10;2.90;;;;;;;26.12;42.03;102488.34;5029375;28;20056;-73
2022/08/08 09:56:46;;;;;;;9.73;3.13;;;;;;;26.68;42.39;102487.22;5030758;28;20499;-68
2022/08/08 09:59:22;;;;;;;10.75;2.67;;;;;;;28.94;37.85;102481.34;5030902;28;20029;-68
2022/08/08 10:01:50;;;;;;;11.50;2.70;;;;;;;28.70;37.73;102486.97;5030248;28;20037;-71
2022/08/08 10:04:21;;;;;;;10.23;2.80;;;;;;;27.22;40.60;102487.84;5031024;28;20021;-68
2022/08/08 10:06:47;;;;;;;12.52;3.00;;;;;;;25.83;42.55;102485.66;5033267;28;20104;-70
2022/08/08 10:09:12;;;;;;;12.85;3.15;;;;;;;25.04;44.89;102480.03;5031064;28;20112;-72
2022/08/08 10:11:38;;;;;;;12.02;3.00;;;;;;;24.64;45.82;102492.06;5034256;28;20030;-60
2022/08/08 10:14:06;;;;;;;11.75;3.00;;;;;;;24.79;46.83;102493.44;5030787;28;20087;-59
2022/08/08 10:16:42;;;;;;;9.65;2.90;;;;;;;27.39;40.86;102485.38;5031618;28;20112;-60
2022/08/08 10:19:12;;;;;;;7.57;2.65;;;;;;;29.56;35.67;102484.66;5032269;28;20096;-61
2022/08/08 10:21:38;;;;;;;11.32;2.60;;;;;;;30.52;32.96;102477.84;5030503;28;20026;-61
2022/08/08 10:24:06;;;;;;;8.98;2.60;;;;;;;31.49;31.52;102476.13;5034149;28;20028;-63
2022/08/08 10:26:43;;;;;;;12.45;2.70;;;;;;;32.05;31.32;102473.69;5031230;28;20029;-61
2022/08/08 10:29:10;;;;;;;9.02;2.60;;;;;;;33.00;28.81;102480.50;5028180;28;20091;-73
2022/08/08 10:34:23;;;;;;;7.97;2.50;;;;;;;33.67;28.40;102486.06;5041596;28;20461;-60
2022/08/08 10:36:49;;;;;;;10.07;2.60;;;;;;;34.40;27.56;102473.72;5037922;28;20060;-63
2022/08/08 10:39:20;;;;;;;8.57;2.40;;;;;;;32.73;29.05;102480.44;5043844;28;20086;-62
2022/08/08 10:41:57;;;;;;;7.65;2.40;;;;;;;30.74;32.53;102473.94;5042414;28;20085;-61
2022/08/08 10:44:49;;;;;;;7.82;2.65;;;;;;;29.20;34.23;102477.34;5046884;28;20032;-60
2022/08/08 10:47:16;;;;;;;9.07;2.55;;;;;;;28.05;36.15;102478.09;5039452;28;20044;-59
2022/08/08 10:49:52;;;;;;;9.82;2.80;;;;;;;27.25;36.86;102471.44;5040453;28;20032;-62
2022/08/08 10:52:35;;;;;;;7.65;2.53;;;;;;;26.74;38.81;102478.88;5041116;28;20176;-60
2022/08/08 10:55:06;;;;;;;8.43;2.45;;;;;;;27.47;37.64;102468.75;5045081;28;20040;-62
2022/08/08 10:57:36;;;;;;;8.55;2.60;;;;;;;29.63;33.66;102477.06;5046265;28;20044;-61
2022/08/08 11:00:03;;;;;;;5.78;2.40;;;;;;;32.07;29.87;102475.34;5043804;28;20033;-60
2022/08/08 11:02:32;;;;;;;7.93;2.40;;;;;;;33.93;28.12;102475.22;5045617;28;20029;-61
2022/08/08 11:05:03;;;;;;;7.75;2.47;;;;;;;35.05;26.09;102465.38;5045315;28;20032;-59
2022/08/08 11:07:33;;;;;;;7.90;2.40;;;;;;;35.35;25.92;102475.94;5045513;28;20037;-61
2022/08/08 11:10:14;;;;;;;6.15;2.20;;;;;;;33.10;28.04;102475.28;5038874;28;20041;-60
2022/08/08 11:12:59;;;;;;;8.32;2.50;;;;;;;31.36;30.67;102470.50;5031727;28;20041;-59
2022/08/08 11:15:28;;;;;;;5.55;2.20;;;;;;;30.21;31.29;102467.72;5036331;28;20033;-60
2022/08/08 11:17:54;;;;;;;7.55;2.33;;;;;;;30.04;31.92;102466.78;5033908;28;20061;-59
2022/08/08 11:20:22;;;;;;;8.25;2.40;;;;;;;30.74;30.85;102461.22;5037097;28;20052;-59
2022/08/08 11:22:52;;;;;;;9.15;2.40;;;;;;;32.60;28.75;102464.75;5030129;28;20025;-59
2022/08/08 11:25:22;;;;;;;5.28;2.20;;;;;;;33.71;26.38;102462.97;5037333;28;20025;-60
2022/08/08 11:27:51;;;;;;;9.85;2.40;;;;;;;33.85;26.29;102463.88;5033419;28;20029;-59
2022/08/08 11:30:16;;;;;;;6.10;2.30;;;;;;;32.80;27.21;102462.63;5036515;28;20028;-60
2022/08/08 11:32:42;;;;;;;8.70;2.33;;;;;;;31.42;29.36;102449.13;5037035;28;20029;-60
2022/08/08 11:35:12;;;;;;;8.30;2.30;;;;;;;30.02;31.15;102460.50;5033019;28;20035;-60
2022/08/08 11:37:40;;;;;;;5.95;2.20;;;;;;;29.28;31.99;102457.94;5034980;28;20032;-60
2022/08/08 11:40:08;;;;;;;7.47;2.30;;;;;;;29.23;32.24;102450.00;5034098;28;20033;-60
2022/08/08 11:42:34;;;;;;;7.50;2.20;;;;;;;29.87;32.23;102454.03;5032323;28;20485;-60